Time;durP1;ratioP1;P1;durP2;ratioP2;P2;SDS_P1;SDS_P2;PMS_P1;PMS_P2;Temp;Humidity;BMP_temperature;BMP_pressure;BME280_temperature;BME280_humidity;BME280_pressure;Samples;Min_cycle;Max_cycle;Signal;HPM_P1;HPM_P2
2021/12/13 00:01:47;;;;;;;10.5;1.7;;;;;;;2.84;96.53418;947.5231;;;;
2021/12/13 00:04:12;;;;;;;3.2;2.3;;;;;;;2.9;96.8623;947.5319;;;;
2021/12/13 00:06:38;;;;;;;4.2;2.9;;;;;;;2.74;97.66602;947.4875;;;;
2021/12/13 00:09:03;;;;;;;5.2;3.5;;;;;;;2.84;97.59961;947.5427;;;;
2021/12/13 00:11:29;;;;;;;4.2;3.3;;;;;;;2.87;97.50488;947.4199;;;;
2021/12/13 00:13:54;;;;;;;5.1;3.7;;;;;;;2.81;97.83789;947.5086;;;;
2021/12/13 00:16:19;;;;;;;5.1;3.5;;;;;;;2.95;97.33203;947.55;;;;
2021/12/13 00:18:44;;;;;;;5.4;3.9;;;;;;;3.02;96.83301;947.5377;;;;
2021/12/13 00:21:09;;;;;;;5.1;3.9;;;;;;;2.99;96.78027;947.5803;;;;
2021/12/13 00:23:34;;;;;;;4.5;3.5;;;;;;;3.08;96.41016;947.5259;;;;
2021/12/13 00:26:02;;;;;;;4.6;3.8;;;;;;;3.16;95.87598;947.4826;;;;
2021/12/13 00:28:27;;;;;;;4.8;3.7;;;;;;;3.22;95.59863;947.5263;;;;
2021/12/13 00:30:52;;;;;;;8.4;3.6;;;;;;;3.28;95.06055;947.4945;;;;
2021/12/13 00:33:19;;;;;;;4.4;3.5;;;;;;;3.27;94.88086;947.4235;;;;
2021/12/13 00:35:44;;;;;;;6;4.7;;;;;;;3.16;95.07031;947.5143;;;;
2021/12/13 00:38:09;;;;;;;5.1;3.9;;;;;;;3.22;95.07129;947.5168;;;;
2021/12/13 00:40:34;;;;;;;4.4;3.3;;;;;;;3.05;95.57129;947.4833;;;;
2021/12/13 00:42:59;;;;;;;4;2.6;;;;;;;2.92;96.65332;947.5179;;;;
2021/12/13 00:45:24;;;;;;;3.9;3;;;;;;;3.05;96.39063;947.4872;;;;
2021/12/13 00:47:49;;;;;;;3.1;2.6;;;;;;;3.03;96.18652;947.4344;;;;
2021/12/13 00:50:17;;;;;;;3.7;2.6;;;;;;;3.03;96.54297;947.4902;;;;
2021/12/13 00:52:43;;;;;;;4.1;2.7;;;;;;;3.15;95.86328;947.5066;;;;
2021/12/13 00:55:07;;;;;;;6.1;3.2;;;;;;;3.21;95.39453;947.41;;;;
2021/12/13 00:57:32;;;;;;;3.8;2.8;;;;;;;3.24;95.12012;947.4767;;;;
2021/12/13 01:00:00;;;;;;;4.1;3.2;;;;;;;3.29;94.8623;947.4283;;;;
2021/12/13 01:02:25;;;;;;;3.1;2.7;;;;;;;3.27;94.88086;947.4178;;;;
2021/12/13 01:04:48;;;;;;;3.8;3;;;;;;;3.27;94.84766;947.4099;;;;
2021/12/13 01:07:14;;;;;;;3.3;2.5;;;;;;;3.29;94.64941;947.4078;;;;
2021/12/13 01:09:39;;;;;;;3.4;2.2;;;;;;;3.2;95.10059;947.395;;;;
2021/12/13 01:12:04;;;;;;;2.4;2.1;;;;;;;2.99;96.14258;947.3713;;;;
2021/12/13 01:14:34;;;;;;;4.3;2;;;;;;;3.07;96.11426;947.4108;;;;
2021/12/13 01:17:02;;;;;;;2.2;1.8;;;;;;;3.13;96.0625;947.3995;;;;
2021/12/13 01:19:30;;;;;;;2.7;1.9;;;;;;;3.13;96.04004;947.4608;;;;
2021/12/13 01:21:54;;;;;;;2.9;2.2;;;;;;;3.01;96.8418;947.4442;;;;
2021/12/13 01:24:13;;;;;;;4.4;2.1;;;;;;;2.93;97.39551;947.3964;;;;
2021/12/13 01:26:39;;;;;;;2.4;1.9;;;;;;;2.9;98.2959;947.3806;;;;
2021/12/13 01:29:05;;;;;;;2.9;2.4;;;;;;;2.99;97.85938;947.4396;;;;
2021/12/13 01:32:02;;;;;;;3;2.5;;;;;;;2.92;98.05566;947.4409;;;;
2021/12/13 01:34:27;;;;;;;3.1;2.3;;;;;;;2.77;98.92773;947.401;;;;
2021/12/13 01:37:00;;;;;;;4.2;2.7;;;;;;;2.77;99.18652;947.3837;;;;
2021/12/13 01:39:17;;;;;;;4.8;3.4;;;;;;;3;98.22949;947.4622;;;;
2021/12/13 01:41:44;;;;;;;3.9;3;;;;;;;3.15;97.32422;947.4319;;;;
2021/12/13 01:44:09;;;;;;;5.5;3.6;;;;;;;3.27;96.46387;947.3627;;;;
2021/12/13 01:46:34;;;;;;;5.2;3.6;;;;;;;3.31;95.91992;947.3692;;;;
2021/12/13 01:49:01;;;;;;;5.8;3.7;;;;;;;3.38;95.28516;947.4333;;;;
2021/12/13 01:51:27;;;;;;;5.1;3.7;;;;;;;3.5;94.61719;947.3746;;;;
2021/12/13 01:53:54;;;;;;;6.8;4.1;;;;;;;3.46;94.20508;947.3933;;;;
2021/12/13 01:56:37;;;;;;;6.3;4.4;;;;;;;3.5;94.16797;947.3614;;;;
2021/12/13 01:59:30;;;;;;;5.4;3.7;;;;;;;3.48;94.16406;947.3865;;;;
2021/12/13 02:01:43;;;;;;;7.4;4.3;;;;;;;3.46;94.23828;947.3445;;;;
2021/12/13 02:04:07;;;;;;;5.9;4.2;;;;;;;3.46;94.22559;947.3064;;;;
2021/12/13 02:06:32;;;;;;;6.4;3.6;;;;;;;3.43;94.39844;947.3531;;;;
2021/12/13 02:08:58;;;;;;;4;3.1;;;;;;;3.3;94.90918;947.3281;;;;
2021/12/13 02:11:23;;;;;;;3.6;3.1;;;;;;;3.32;94.85742;947.332;;;;
2021/12/13 02:14:04;;;;;;;4;2.6;;;;;;;3.16;95.48535;947.3261;;;;
2021/12/13 02:18:43;;;;;;;3;2.4;;;;;;;2.99;96.5127;947.2974;;;;
2021/12/13 02:21:11;;;;;;;2.9;2.4;;;;;;;2.85;97.51172;947.2395;;;;
2021/12/13 02:23:34;;;;;;;3;2.3;;;;;;;2.82;98.46777;947.1594;;;;
2021/12/13 02:26:00;;;;;;;2.6;2.3;;;;;;;2.96;97.98535;947.2184;;;;
2021/12/13 02:28:26;;;;;;;3.2;2;;;;;;;3.03;97.54199;947.2274;;;;
2021/12/13 02:30:53;;;;;;;3.1;2;;;;;;;3.02;97.1582;947.2238;;;;
2021/12/13 02:33:16;;;;;;;2.2;2;;;;;;;3.02;97.41602;947.1945;;;;
2021/12/13 02:35:41;;;;;;;3.2;2;;;;;;;3.15;96.74023;947.07;;;;
2021/12/13 02:38:07;;;;;;;2;1.8;;;;;;;3.23;96.4541;947.1177;;;;
2021/12/13 02:40:34;;;;;;;2.1;1.8;;;;;;;2.92;98.06641;947.1325;;;;
2021/12/13 02:42:59;;;;;;;2.2;1.8;;;;;;;2.95;98.40918;947.1451;;;;
2021/12/13 02:45:26;;;;;;;2.8;1.8;;;;;;;2.94;99.06934;947.1632;;;;
2021/12/13 02:47:49;;;;;;;2;1.8;;;;;;;2.97;99.00781;947.1727;;;;
2021/12/13 02:50:15;;;;;;;2.8;1.8;;;;;;;3.11;99.02832;947.0998;;;;
2021/12/13 02:52:40;;;;;;;2.2;1.7;;;;;;;3.17;98.62988;947.1362;;;;
2021/12/13 02:55:05;;;;;;;3;2.1;;;;;;;3.24;98.1416;947.1234;;;;
2021/12/13 02:57:30;;;;;;;3.1;2.3;;;;;;;3.28;97.46289;947.1395;;;;
2021/12/13 02:59:55;;;;;;;2.7;1.9;;;;;;;3.38;96.75586;947.1752;;;;
2021/12/13 03:02:20;;;;;;;2.4;2;;;;;;;3.52;95.60938;947.1678;;;;
2021/12/13 03:07:11;;;;;;;3.5;1.5;;;;;;;3.46;95.25879;947.1655;;;;
2021/12/13 03:09:36;;;;;;;3.1;1.7;;;;;;;3.49;95.1875;947.2126;;;;
2021/12/13 03:12:01;;;;;;;2.1;1.3;;;;;;;3.47;95.11816;947.2301;;;;
2021/12/13 03:14:26;;;;;;;2.8;1.9;;;;;;;3.31;96.02344;947.2089;;;;
2021/12/13 03:16:54;;;;;;;2.8;1.7;;;;;;;3.36;96.01074;947.1656;;;;
2021/12/13 03:19:19;;;;;;;2.2;1.6;;;;;;;3.4;95.49316;947.1315;;;;
2021/12/13 03:21:46;;;;;;;9.1;4.2;;;;;;;3.4;95.51563;947.2388;;;;
2021/12/13 03:24:12;;;;;;;12.3;5.6;;;;;;;3.35;96.26953;947.2183;;;;
2021/12/13 03:26:38;;;;;;;11.5;5.1;;;;;;;3.42;95.87012;947.2275;;;;
2021/12/13 03:29:04;;;;;;;12.2;5.7;;;;;;;3.43;95.95996;947.2206;;;;
2021/12/13 03:31:30;;;;;;;20.5;9.3;;;;;;;3.36;95.80859;947.2264;;;;
2021/12/13 03:33:57;;;;;;;13.5;6.9;;;;;;;3.36;96.17969;947.2145;;;;
2021/12/13 03:36:22;;;;;;;7.9;4.7;;;;;;;3.39;95.91797;947.2524;;;;
2021/12/13 03:38:47;;;;;;;7.1;4.1;;;;;;;3.43;96.17285;947.1323;;;;
2021/12/13 03:41:12;;;;;;;7.6;4.5;;;;;;;3.39;95.97363;947.2225;;;;
2021/12/13 03:43:38;;;;;;;7.1;3.8;;;;;;;3.48;95.37695;947.2263;;;;
2021/12/13 03:46:06;;;;;;;3.9;2.7;;;;;;;3.55;95;947.2166;;;;
2021/12/13 03:48:31;;;;;;;2.6;1.8;;;;;;;3.56;94.46094;947.2855;;;;
2021/12/13 03:50:57;;;;;;;2.4;1.6;;;;;;;3.5;94.63965;947.2115;;;;
2021/12/13 03:53:22;;;;;;;1.5;1.3;;;;;;;3.55;94.44922;947.2505;;;;
2021/12/13 03:55:48;;;;;;;1.7;1.3;;;;;;;3.55;94.20215;947.2346;;;;
2021/12/13 03:58:13;;;;;;;2.6;1.3;;;;;;;3.64;94.05176;947.2598;;;;
2021/12/13 04:02:31;;;;;;;1.7;1.5;;;;;;;3.58;94.23047;947.3013;;;;
2021/12/13 04:04:56;;;;;;;2.5;1.6;;;;;;;3.58;94.27539;947.3353;;;;
2021/12/13 04:07:21;;;;;;;2;1.5;;;;;;;3.55;94.77539;947.3325;;;;
2021/12/13 04:09:46;;;;;;;5.1;2.6;;;;;;;3.55;95.22266;947.3077;;;;
2021/12/13 04:12:14;;;;;;;3.5;2.1;;;;;;;3.5;95.34668;947.2487;;;;
2021/12/13 04:14:37;;;;;;;4;2.9;;;;;;;3.55;95.25586;947.3045;;;;
2021/12/13 04:17:08;;;;;;;6.9;3.8;;;;;;;3.52;95.27441;947.2805;;;;
2021/12/13 04:19:27;;;;;;;7.2;4.6;;;;;;;3.51;95.92188;947.2674;;;;
2021/12/13 04:21:57;;;;;;;3.5;2.5;;;;;;;3.5;95.9541;947.3101;;;;
2021/12/13 04:24:22;;;;;;;3.4;2.8;;;;;;;3.54;95.87207;947.3088;;;;
2021/12/13 04:26:47;;;;;;;3.8;2.3;;;;;;;3.51;95.86621;947.3128;;;;
2021/12/13 04:29:12;;;;;;;2.1;1.7;;;;;;;3.42;96.08301;947.3425;;;;
2021/12/13 04:31:40;;;;;;;2.4;1.8;;;;;;;3.33;96.72559;947.4108;;;;
2021/12/13 04:34:06;;;;;;;4.6;3.3;;;;;;;3.31;96.9209;947.4064;;;;
2021/12/13 04:36:32;;;;;;;5.8;3.6;;;;;;;3.27;97.14844;947.4116;;;;
2021/12/13 04:38:56;;;;;;;5;3.2;;;;;;;3.19;97.81445;947.4221;;;;
2021/12/13 04:41:21;;;;;;;4.6;3.3;;;;;;;3.22;97.80957;947.5346;;;;
2021/12/13 04:43:46;;;;;;;3;2.3;;;;;;;3.08;98.34863;947.4469;;;;
2021/12/13 04:46:38;;;;;;;2.5;2.2;;;;;;;2.94;99.03516;947.4659;;;;
2021/12/13 04:49:03;;;;;;;3.7;3;;;;;;;3.14;98.65723;947.5076;;;;
2021/12/13 04:51:28;;;;;;;3.1;2.1;;;;;;;3.18;98.26172;947.5547;;;;
2021/12/13 04:53:58;;;;;;;3.9;2.4;;;;;;;3.07;98.7168;947.4706;;;;
2021/12/13 04:56:23;;;;;;;2.3;2;;;;;;;3.22;98.14648;947.5959;;;;
2021/12/13 04:58:49;;;;;;;5.2;3.1;;;;;;;3.27;97.87891;947.6319;;;;
2021/12/13 05:01:15;;;;;;;16.1;6;;;;;;;3.35;97.69336;947.6295;;;;
2021/12/13 05:03:40;;;;;;;24.1;10.6;;;;;;;3.4;97.33496;947.6031;;;;
2021/12/13 05:06:07;;;;;;;21.2;10.1;;;;;;;3.43;97.12988;947.576;;;;
2021/12/13 05:08:32;;;;;;;13.8;7.1;;;;;;;3.49;96.98535;947.6522;;;;
2021/12/13 05:10:57;;;;;;;13.6;7.6;;;;;;;3.53;96.72363;947.7358;;;;
2021/12/13 05:13:22;;;;;;;12.4;6.3;;;;;;;3.55;96.58398;947.5952;;;;
2021/12/13 05:15:59;;;;;;;10.1;6.3;;;;;;;3.5;96.42578;947.6007;;;;
2021/12/13 05:18:25;;;;;;;8.6;5.3;;;;;;;3.43;96.93652;947.6239;;;;
2021/12/13 05:20:50;;;;;;;6.1;4.6;;;;;;;3.49;96.69336;947.6301;;;;
2021/12/13 05:23:15;;;;;;;7.2;4.5;;;;;;;3.48;96.41016;947.6022;;;;
2021/12/13 05:25:42;;;;;;;8.4;6;;;;;;;3.48;96.5332;947.6195;;;;
2021/12/13 05:28:29;;;;;;;9.1;5.4;;;;;;;3.47;96.16113;947.6125;;;;
2021/12/13 05:30:57;;;;;;;4;3.3;;;;;;;3.44;96.67188;947.5233;;;;
2021/12/13 05:33:20;;;;;;;3.9;3.5;;;;;;;3.37;96.8457;947.5978;;;;
2021/12/13 05:35:45;;;;;;;4.6;3.7;;;;;;;3.3;97.12109;947.5447;;;;
2021/12/13 05:38:12;;;;;;;5.3;3.3;;;;;;;3.02;98.48242;947.5894;;;;
2021/12/13 05:40:39;;;;;;;5.1;3.8;;;;;;;2.99;99.24805;947.6259;;;;
2021/12/13 05:43:04;;;;;;;6.3;4.1;;;;;;;2.9;99.99121;947.6128;;;;
2021/12/13 05:45:29;;;;;;;6;4.1;;;;;;;3.01;99.82422;947.5722;;;;
2021/12/13 05:47:57;;;;;;;5.3;4;;;;;;;3.08;99.39258;947.682;;;;
2021/12/13 05:50:21;;;;;;;4.7;3.9;;;;;;;3.17;99.07715;947.6947;;;;
2021/12/13 05:52:47;;;;;;;4.6;4.1;;;;;;;3.3;98.27734;947.7043;;;;
2021/12/13 05:55:31;;;;;;;5.9;4.2;;;;;;;3.25;98.18652;947.7253;;;;
2021/12/13 05:57:56;;;;;;;5.9;4.1;;;;;;;3.35;97.60352;947.7202;;;;
2021/12/13 06:00:23;;;;;;;7.2;4.5;;;;;;;3.51;96.86523;947.7632;;;;
2021/12/13 06:02:48;;;;;;;5.7;3.9;;;;;;;3.48;96.64551;947.6769;;;;
2021/12/13 06:05:13;;;;;;;6;4.2;;;;;;;3.42;96.7998;947.7389;;;;
2021/12/13 06:07:39;;;;;;;6.2;4.4;;;;;;;3.43;97.08301;947.7592;;;;
2021/12/13 06:10:04;;;;;;;6.6;4.3;;;;;;;3.41;97.15527;947.7533;;;;
2021/12/13 06:12:29;;;;;;;8.3;5.9;;;;;;;3.4;97.3125;947.7966;;;;
2021/12/13 06:14:54;;;;;;;7.6;5.7;;;;;;;3.37;97.2168;947.7709;;;;
2021/12/13 06:17:21;;;;;;;10.8;8.2;;;;;;;3.29;98.01758;947.7847;;;;
2021/12/13 06:19:47;;;;;;;12.4;8.5;;;;;;;3.45;97.31348;947.7738;;;;
2021/12/13 06:22:14;;;;;;;12.6;8.8;;;;;;;3.54;96.79492;947.8391;;;;
2021/12/13 06:24:39;;;;;;;13.3;9.5;;;;;;;3.61;96.64063;947.7756;;;;
2021/12/13 06:27:04;;;;;;;14.3;9.3;;;;;;;3.58;96.93848;947.7781;;;;
2021/12/13 06:29:30;;;;;;;8.5;5.7;;;;;;;3.55;96.72949;947.8758;;;;
2021/12/13 06:31:55;;;;;;;7.6;5.4;;;;;;;3.51;96.61816;947.8942;;;;
2021/12/13 06:34:20;;;;;;;8.2;5.1;;;;;;;3.4;97.3125;947.9219;;;;
2021/12/13 06:36:46;;;;;;;7.2;4.5;;;;;;;3.49;97.26758;947.8987;;;;
2021/12/13 06:39:11;;;;;;;5.7;4.4;;;;;;;3.49;97.20996;947.8812;;;;
2021/12/13 06:41:38;;;;;;;6.4;4.4;;;;;;;3.53;96.80176;947.8858;;;;
2021/12/13 06:44:04;;;;;;;7;5;;;;;;;3.58;96.48828;947.9189;;;;
2021/12/13 06:46:29;;;;;;;5.7;4.9;;;;;;;3.55;96.32324;947.9612;;;;
2021/12/13 06:48:58;;;;;;;4.1;3.5;;;;;;;3.32;97.43945;947.9799;;;;
2021/12/13 06:51:24;;;;;;;5.7;4;;;;;;;3.3;98.38965;947.9619;;;;
2021/12/13 06:53:49;;;;;;;5.8;4.3;;;;;;;3.34;97.87305;947.912;;;;
2021/12/13 06:56:14;;;;;;;7.6;4.6;;;;;;;3.34;98.28613;947.948;;;;
2021/12/13 06:58:40;;;;;;;5.5;4.2;;;;;;;3.49;97.91699;947.9001;;;;
2021/12/13 07:01:05;;;;;;;5;3.4;;;;;;;3.57;97.42871;947.9119;;;;
2021/12/13 07:03:34;;;;;;;5.2;3;;;;;;;3.56;96.94531;947.8195;;;;
2021/12/13 07:05:55;;;;;;;5;3.4;;;;;;;3.48;97.51074;947.903;;;;
2021/12/13 07:08:21;;;;;;;5.8;3.2;;;;;;;3.58;97.03906;947.9171;;;;
2021/12/13 07:10:46;;;;;;;5.2;3.2;;;;;;;3.69;96.50195;948.0097;;;;
2021/12/13 07:16:11;;;;;;;6.7;4.1;;;;;;;3.73;95.5791;948.0372;;;;
2021/12/13 07:18:56;;;;;;;4.7;3.2;;;;;;;3.44;97.52539;948.1252;;;;
2021/12/13 07:21:36;;;;;;;4.8;3.4;;;;;;;3.26;99.00977;948.1266;;;;
2021/12/13 07:24:04;;;;;;;10.2;6.4;;;;;;;3.22;100;948.1496;;;;
2021/12/13 07:26:26;;;;;;;17.5;9.2;;;;;;;3.46;99.33691;948.1781;;;;
2021/12/13 07:28:51;;;;;;;13;7.5;;;;;;;3.55;98.52539;948.0352;;;;
2021/12/13 07:31:16;;;;;;;14.8;7.8;;;;;;;3.49;98.32129;948.0804;;;;
2021/12/13 07:33:45;;;;;;;15.1;8.8;;;;;;;3.44;98.95996;948.1588;;;;
2021/12/13 07:36:32;;;;;;;15.3;8;;;;;;;3.56;99.03223;948.0744;;;;
2021/12/13 07:39:00;;;;;;;11;5.9;;;;;;;3.84;98.1084;948.1797;;;;
2021/12/13 07:41:25;;;;;;;11.1;6;;;;;;;3.97;97.22852;948.1847;;;;
2021/12/13 07:43:50;;;;;;;7.9;4.6;;;;;;;4.06;96.5752;948.2432;;;;
2021/12/13 07:46:15;;;;;;;9.6;5.5;;;;;;;4.1;95.70801;948.2155;;;;
2021/12/13 07:48:44;;;;;;;8.1;4.9;;;;;;;4.25;95.34668;948.272;;;;
2021/12/13 07:51:10;;;;;;;12.8;7.2;;;;;;;4.25;94.68262;948.3477;;;;
2021/12/13 07:53:34;;;;;;;13.1;8;;;;;;;4.32;94.28223;948.3842;;;;
2021/12/13 07:56:00;;;;;;;8.9;5.7;;;;;;;4.34;93.71191;948.3269;;;;
2021/12/13 07:58:25;;;;;;;8.7;5.8;;;;;;;4.27;93.83105;948.3878;;;;
2021/12/13 08:00:50;;;;;;;8.7;5.7;;;;;;;4.19;94.5127;948.3909;;;;
2021/12/13 08:03:15;;;;;;;7;4.8;;;;;;;3.98;95.66797;948.4075;;;;
2021/12/13 08:05:42;;;;;;;5.6;4.4;;;;;;;3.82;97.26172;948.305;;;;
2021/12/13 08:08:07;;;;;;;7.8;5.1;;;;;;;3.94;97.29004;948.3805;;;;
2021/12/13 08:10:33;;;;;;;10.2;5.9;;;;;;;4.06;96.97949;948.4285;;;;
2021/12/13 08:13:00;;;;;;;7.2;4.8;;;;;;;4.25;96.50684;948.4196;;;;
2021/12/13 08:15:24;;;;;;;6.2;4.1;;;;;;;4.33;96.23145;948.3372;;;;
2021/12/13 08:17:50;;;;;;;7.9;4.3;;;;;;;4.39;95.90723;948.3591;;;;
2021/12/13 08:20:18;;;;;;;5.7;3.9;;;;;;;4.49;95.52441;948.2681;;;;
2021/12/13 08:22:44;;;;;;;6.8;4.9;;;;;;;4.58;95.14844;948.3394;;;;
2021/12/13 08:25:09;;;;;;;6.8;4.2;;;;;;;4.92;94.08691;948.3646;;;;
2021/12/13 08:27:37;;;;;;;5.1;3.6;;;;;;;5.1;92.95605;948.3387;;;;
2021/12/13 08:30:02;;;;;;;6.2;3.3;;;;;;;5.27;91.52539;948.2497;;;;
2021/12/13 08:32:31;;;;;;;14.9;8.7;;;;;;;5.33;90.90723;948.2539;;;;
2021/12/13 08:34:56;;;;;;;12.4;7;;;;;;;5.5;90.69531;948.3189;;;;
2021/12/13 08:37:22;;;;;;;14.8;7.6;;;;;;;5.68;90.63281;948.2653;;;;
2021/12/13 08:39:48;;;;;;;28.5;17.4;;;;;;;5.78;89.35449;948.2397;;;;
2021/12/13 08:42:13;;;;;;;39.6;25.2;;;;;;;5.4;90.02051;948.2989;;;;
2021/12/13 08:44:38;;;;;;;17.6;12.4;;;;;;;4.87;93.44629;948.3181;;;;
2021/12/13 08:47:04;;;;;;;15.1;9;;;;;;;4.81;94.40137;948.2823;;;;
2021/12/13 08:49:28;;;;;;;14.3;10.3;;;;;;;4.84;94.73633;948.2358;;;;
2021/12/13 08:51:53;;;;;;;15.5;9.6;;;;;;;4.73;95.33105;948.3052;;;;
2021/12/13 08:54:20;;;;;;;10.4;7.6;;;;;;;4.77;95.0127;948.2966;;;;
2021/12/13 08:56:44;;;;;;;8.4;6.1;;;;;;;4.96;94.48047;948.2863;;;;
2021/12/13 08:59:10;;;;;;;10.9;6.3;;;;;;;5.07;92.98242;948.2908;;;;
2021/12/13 09:01:37;;;;;;;6.8;5.2;;;;;;;4.71;93.98535;948.3457;;;;
2021/12/13 09:04:03;;;;;;;6.7;4.1;;;;;;;4.72;93.85352;948.3773;;;;
2021/12/13 09:06:28;;;;;;;8.6;5.4;;;;;;;4.82;94.61914;948.4027;;;;
2021/12/13 09:08:54;;;;;;;7.1;4.5;;;;;;;5.03;93.35742;948.3686;;;;
2021/12/13 09:11:20;;;;;;;8.7;5.3;;;;;;;5.24;92.98438;948.4147;;;;
2021/12/13 09:13:45;;;;;;;7.3;5.5;;;;;;;5.39;92.14844;948.4261;;;;
2021/12/13 09:16:11;;;;;;;6.1;4.4;;;;;;;5.45;91.60938;948.3552;;;;
2021/12/13 09:18:36;;;;;;;13.7;8.2;;;;;;;5.6;91.33789;948.4741;;;;
2021/12/13 09:21:04;;;;;;;12.8;8.8;;;;;;;5.85;90.27148;948.3756;;;;
2021/12/13 09:23:30;;;;;;;12.4;7.9;;;;;;;6.02;89.31543;948.4634;;;;
2021/12/13 09:25:55;;;;;;;13.5;8.4;;;;;;;6.09;89.03711;948.4278;;;;
2021/12/13 09:28:22;;;;;;;16.6;10.7;;;;;;;6.29;88.54492;948.5061;;;;
2021/12/13 09:30:48;;;;;;;17.7;11;;;;;;;6.45;87.50195;948.4906;;;;
2021/12/13 09:33:13;;;;;;;21;10.3;;;;;;;6.32;87.79297;948.4819;;;;
2021/12/13 09:35:38;;;;;;;12.6;7.4;;;;;;;6.14;88.55859;948.4858;;;;
2021/12/13 09:38:04;;;;;;;11.1;6.8;;;;;;;5.89;90.05664;948.557;;;;
2021/12/13 09:40:31;;;;;;;10.7;6.4;;;;;;;5.83;91.0127;948.4847;;;;
2021/12/13 09:43:00;;;;;;;26.3;16.7;;;;;;;5.99;90.56152;948.4771;;;;
2021/12/13 09:45:26;;;;;;;12.7;8.5;;;;;;;6.14;90.15332;948.3855;;;;
2021/12/13 09:47:52;;;;;;;8.3;4.7;;;;;;;6.19;90.20996;948.3964;;;;
2021/12/13 09:50:17;;;;;;;4.7;3;;;;;;;6.3;89.98242;948.4019;;;;
2021/12/13 09:52:44;;;;;;;4.3;2.6;;;;;;;6.45;89.12109;948.3633;;;;
2021/12/13 09:55:10;;;;;;;6;4.4;;;;;;;6.4;88.45605;948.3683;;;;
2021/12/13 09:57:35;;;;;;;5.4;3.2;;;;;;;6.49;87.88477;948.3469;;;;
2021/12/13 10:00:00;;;;;;;5.5;3.2;;;;;;;6.43;89.13965;948.3499;;;;
2021/12/13 10:02:26;;;;;;;5.9;3;;;;;;;6.57;88.77246;948.2394;;;;
2021/12/13 10:04:51;;;;;;;4.7;3.2;;;;;;;6.71;88.23633;948.3228;;;;
2021/12/13 10:07:16;;;;;;;5.6;3.6;;;;;;;7.01;86.92969;948.2467;;;;
2021/12/13 10:09:42;;;;;;;4.9;3.5;;;;;;;7.33;85.71094;948.209;;;;
2021/12/13 10:12:07;;;;;;;6;3.4;;;;;;;;;;;;;
2021/12/13 10:14:33;;;;;;;6.8;3.8;;;;;;;;;;;;;
2021/12/13 10:16:58;;;;;;;5.5;3.7;;;;;;;;;;;;;
2021/12/13 10:19:24;;;;;;;5;3.4;;;;;;;;;;;;;
2021/12/13 10:21:49;;;;;;;4.5;3.6;;;;;;;;;;;;;
2021/12/13 10:24:16;;;;;;;5.6;3.8;;;;;;;;;;;;;
2021/12/13 10:26:41;;;;;;;8.2;4.4;;;;;;;;;;;;;
2021/12/13 10:29:06;;;;;;;5.9;4;;;;;;;;;;;;;
2021/12/13 10:31:32;;;;;;;4.6;3.6;;;;;;;;;;;;;
2021/12/13 10:33:57;;;;;;;3.9;3.1;;;;;;;;;;;;;
2021/12/13 10:36:22;;;;;;;3.1;2.7;;;;;;;;;;;;;
2021/12/13 10:38:47;;;;;;;3.4;3.1;;;;;;;;;;;;;
2021/12/13 10:41:12;;;;;;;5.8;3.3;;;;;;;;;;;;;
2021/12/13 10:43:38;;;;;;;5.6;4;;;;;;;;;;;;;
2021/12/13 10:46:03;;;;;;;7.3;4.5;;;;;;;;;;;;;
2021/12/13 10:48:30;;;;;;;6.8;4.6;;;;;;;;;;;;;
2021/12/13 10:50:52;;;;;;;6.4;5.1;;;;;;;;;;;;;
2021/12/13 10:53:17;;;;;;;7.3;4.7;;;;;;;;;;;;;
2021/12/13 10:55:44;;;;;;;7;4.4;;;;;;;;;;;;;
2021/12/13 10:58:08;;;;;;;7.4;5.1;;;;;;;;;;;;;
2021/12/13 11:00:33;;;;;;;9;5.1;;;;;;;;;;;;;
2021/12/13 11:02:58;;;;;;;5.6;4.4;;;;;;;;;;;;;
2021/12/13 11:05:24;;;;;;;8;4.3;;;;;;;;;;;;;
2021/12/13 11:07:49;;;;;;;8.3;5.5;;;;;;;;;;;;;
2021/12/13 11:10:15;;;;;;;7.9;5.4;;;;;;;;;;;;;
2021/12/13 11:12:40;;;;;;;6.2;4.9;;;;;;;;;;;;;
2021/12/13 11:15:05;;;;;;;10;4.5;;;;;;;;;;;;;
2021/12/13 11:17:30;;;;;;;7.3;5;;;;;;;;;;;;;
2021/12/13 11:20:19;;;;;;;7.1;4.9;;;;;;;;;;;;;
2021/12/13 11:22:41;;;;;;;7;4.7;;;;;;;;;;;;;
2021/12/13 11:25:09;;;;;;;5.8;4.2;;;;;;;;;;;;;
2021/12/13 11:27:34;;;;;;;7.1;4;;;;;;;;;;;;;
2021/12/13 11:29:59;;;;;;;5.3;3.5;;;;;;;;;;;;;
2021/12/13 11:32:24;;;;;;;6.5;3.7;;;;;;;;;;;;;
2021/12/13 11:34:49;;;;;;;9.3;5.5;;;;;;;;;;;;;
2021/12/13 11:37:14;;;;;;;13.5;7.7;;;;;;;;;;;;;
2021/12/13 11:39:39;;;;;;;11.9;6.9;;;;;;;;;;;;;
2021/12/13 11:42:05;;;;;;;11.2;6.7;;;;;;;;;;;;;
2021/12/13 11:44:48;;;;;;;9.3;6.5;;;;;;;;;;;;;
2021/12/13 11:47:13;;;;;;;8.6;5;;;;;;;;;;;;;
2021/12/13 11:49:38;;;;;;;9;5.1;;;;;;;;;;;;;
2021/12/13 11:52:04;;;;;;;5.9;3.9;;;;;;;;;;;;;
2021/12/13 11:54:29;;;;;;;5.4;4.2;;;;;;;;;;;;;
2021/12/13 11:56:54;;;;;;;6;4.8;;;;;;;;;;;;;
2021/12/13 11:59:20;;;;;;;7.7;5.5;;;;;;;;;;;;;
2021/12/13 12:01:47;;;;;;;8.8;5.9;;;;;;;;;;;;;
2021/12/13 12:04:11;;;;;;;8.7;6;;;;;;;;;;;;;
2021/12/13 12:06:36;;;;;;;7.9;5.9;;;;;;;;;;;;;
2021/12/13 12:09:02;;;;;;;7.3;5.5;;;;;;;;;;;;;
2021/12/13 12:11:28;;;;;;;8.2;5.4;;;;;;;;;;;;;
2021/12/13 12:14:01;;;;;;;7;4.8;;;;;;;;;;;;;
2021/12/13 12:16:18;;;;;;;6.8;4.6;;;;;;;;;;;;;
2021/12/13 12:18:45;;;;;;;6.7;4.9;;;;;;;;;;;;;
2021/12/13 12:21:10;;;;;;;5.1;4.5;;;;;;;;;;;;;
2021/12/13 12:23:35;;;;;;;7.7;4.8;;;;;;;;;;;;;
2021/12/13 12:26:00;;;;;;;6.5;5.4;;;;;;;;;;;;;
2021/12/13 12:28:25;;;;;;;6.8;5.7;;;;;;;;;;;;;
2021/12/13 12:30:51;;;;;;;7.2;5.1;;;;;;;;;;;;;
2021/12/13 12:33:17;;;;;;;7.8;6;;;;;;;;;;;;;
2021/12/13 12:35:43;;;;;;;9.4;6.4;;;;;;;;;;;;;
2021/12/13 12:38:07;;;;;;;11.3;6.5;;;;;;;;;;;;;
2021/12/13 12:40:35;;;;;;;7;5.3;;;;;;;;;;;;;
2021/12/13 12:42:59;;;;;;;8.9;6.4;;;;;;;;;;;;;
2021/12/13 12:45:24;;;;;;;9.6;7.7;;;;;;;;;;;;;
2021/12/13 12:47:49;;;;;;;10.1;7.2;;;;;;;;;;;;;
2021/12/13 12:50:14;;;;;;;7.9;5.4;;;;;;;;;;;;;
2021/12/13 12:52:40;;;;;;;8.1;6.1;;;;;;;;;;;;;
2021/12/13 12:55:05;;;;;;;7.2;5.8;;;;;;;;;;;;;
2021/12/13 12:57:30;;;;;;;8.8;6.5;;;;;;;;;;;;;
2021/12/13 12:59:55;;;;;;;7.4;5.7;;;;;;;;;;;;;
2021/12/13 13:02:21;;;;;;;9.6;6.7;;;;;;;;;;;;;
2021/12/13 13:04:46;;;;;;;9.7;6.6;;;;;;;;;;;;;
2021/12/13 13:07:11;;;;;;;9.3;6.7;;;;;;;;;;;;;
2021/12/13 13:09:36;;;;;;;9;6.5;;;;;;;;;;;;;
2021/12/13 13:12:01;;;;;;;11.9;7;;;;;;;;;;;;;
2021/12/13 13:14:30;;;;;;;9;6;;;;;;;;;;;;;
2021/12/13 13:16:51;;;;;;;7.8;5.4;;;;;;;;;;;;;
2021/12/13 13:19:16;;;;;;;7.6;5.1;;;;;;;;;;;;;
2021/12/13 13:21:41;;;;;;;5.9;4.3;;;;;;;;;;;;;
2021/12/13 13:24:07;;;;;;;5.8;4.3;;;;;;;;;;;;;
2021/12/13 13:26:32;;;;;;;5.6;4.3;;;;;;;;;;;;;
2021/12/13 13:28:57;;;;;;;6.9;4.6;;;;;;;;;;;;;
2021/12/13 13:31:22;;;;;;;7.2;4.2;;;;;;;;;;;;;
2021/12/13 13:33:47;;;;;;;5.7;4;;;;;;;;;;;;;
2021/12/13 13:36:14;;;;;;;6.2;4.4;;;;;;;;;;;;;
2021/12/13 13:38:39;;;;;;;7.3;4.5;;;;;;;;;;;;;
2021/12/13 13:41:04;;;;;;;8;4.9;;;;;;;;;;;;;
2021/12/13 13:43:31;;;;;;;5.2;4.4;;;;;;;;;;;;;
2021/12/13 13:45:55;;;;;;;6.1;5;;;;;;;;;;;;;
2021/12/13 13:48:20;;;;;;;6.7;5.1;;;;;;;;;;;;;
2021/12/13 13:50:46;;;;;;;7;5.1;;;;;;;;;;;;;
2021/12/13 13:53:11;;;;;;;7.3;5.1;;;;;;;;;;;;;
2021/12/13 13:55:36;;;;;;;8.5;5.7;;;;;;;;;;;;;
2021/12/13 13:58:02;;;;;;;6.8;4.9;;;;;;;;;;;;;
2021/12/13 14:00:27;;;;;;;7.5;6.2;;;;;;;;;;;;;
2021/12/13 14:02:53;;;;;;;9.1;7.2;;;;;;;;;;;;;
2021/12/13 14:05:18;;;;;;;13.5;9.9;;;;;;;;;;;;;
2021/12/13 14:07:44;;;;;;;13.7;9;;;;;;;;;;;;;
2021/12/13 14:10:10;;;;;;;14.3;10.1;;;;;;;;;;;;;
2021/12/13 14:12:36;;;;;;;12.4;9.3;;;;;;;;;;;;;
2021/12/13 14:15:01;;;;;;;13.2;10.4;;;;;;;;;;;;;
2021/12/13 14:17:26;;;;;;;16.6;12.4;;;;;;;;;;;;;
2021/12/13 14:19:52;;;;;;;9.2;6.8;;;;;;;;;;;;;
2021/12/13 14:22:17;;;;;;;10.5;6.9;;;;;;;;;;;;;
2021/12/13 14:24:44;;;;;;;8.2;6.2;;;;;;;;;;;;;
2021/12/13 14:27:09;;;;;;;9.2;5.9;;;;;;;;;;;;;
2021/12/13 14:29:36;;;;;;;11.3;7;;;;;;;;;;;;;
2021/12/13 14:32:01;;;;;;;14.2;9.7;;;;;;;;;;;;;
2021/12/13 14:34:26;;;;;;;12.7;8.5;;;;;;;;;;;;;
2021/12/13 14:36:54;;;;;;;12.5;9;;;;;;;;;;;;;
2021/12/13 14:39:17;;;;;;;9.3;6.4;;;;;;;;;;;;;
2021/12/13 14:41:42;;;;;;;9.7;6.1;;;;;;;;;;;;;
2021/12/13 14:44:08;;;;;;;11.4;5.3;;;;;;;;;;;;;
2021/12/13 14:46:32;;;;;;;37.3;7.2;;;;;;;;;;;;;
2021/12/13 14:48:57;;;;;;;17.1;6.7;;;;;;;;;;;;;
2021/12/13 14:51:44;;;;;;;6.5;5.4;;;;;;;;;;;;;
2021/12/13 14:54:09;;;;;;;10.3;7.7;;;;;;;;;;;;;
2021/12/13 14:56:34;;;;;;;12;8;;;;;;;;;;;;;
2021/12/13 14:58:59;;;;;;;11.7;8.5;;;;;;;;;;;;;
2021/12/13 15:01:26;;;;;;;28.8;18.6;;;;;;;;;;;;;
2021/12/13 15:03:51;;;;;;;25.4;16.5;;;;;;;;;;;;;
2021/12/13 15:06:16;;;;;;;28.2;18.6;;;;;;;;;;;;;
2021/12/13 15:08:41;;;;;;;34.9;22.4;;;;;;;;;;;;;
2021/12/13 15:11:06;;;;;;;28.7;19.4;;;;;;;;;;;;;
2021/12/13 15:13:32;;;;;;;25.5;17.5;;;;;;;;;;;;;
2021/12/13 15:16:02;;;;;;;23.4;16.4;;;;;;;;;;;;;
2021/12/13 15:18:28;;;;;;;23.5;16.1;;;;;;;;;;;;;
2021/12/13 15:20:52;;;;;;;27.7;17.1;;;;;;;;;;;;;
2021/12/13 15:23:17;;;;;;;28.6;17.2;;;;;;;;;;;;;
2021/12/13 15:25:42;;;;;;;24.4;16.6;;;;;;;;;;;;;
2021/12/13 15:28:07;;;;;;;14.9;10.6;;;;;;;;;;;;;
2021/12/13 15:30:33;;;;;;;16;11.4;;;;;;;;;;;;;
2021/12/13 15:32:58;;;;;;;43.7;22;;;;;;;;;;;;;
2021/12/13 15:35:23;;;;;;;46.9;30.1;;;;;;;;;;;;;
2021/12/13 15:37:50;;;;;;;41.4;26.3;;;;;;;;;;;;;
2021/12/13 15:40:14;;;;;;;37.5;25.2;;;;;;;;;;;;;
2021/12/13 15:42:40;;;;;;;41.9;27;;;;;;;;;;;;;
2021/12/13 15:45:06;;;;;;;44.4;28.8;;;;;;;;;;;;;
2021/12/13 15:49:56;;;;;;;36.4;24.2;;;;;;;;;;;;;
2021/12/13 15:52:22;;;;;;;32.2;22;;;;;;;;;;;;;
2021/12/13 15:54:47;;;;;;;31.8;19.8;;;;;;;;;;;;;
2021/12/13 15:57:11;;;;;;;29;19.1;;;;;;;;;;;;;
2021/12/13 15:59:37;;;;;;;29.1;19.3;;;;;;;;;;;;;
2021/12/13 16:02:02;;;;;;;32.1;19.3;;;;;;;;;;;;;
2021/12/13 16:04:28;;;;;;;69.8;24.1;;;;;;;;;;;;;
2021/12/13 16:06:53;;;;;;;48.2;25.2;;;;;;;;;;;;;
2021/12/13 16:09:18;;;;;;;38.7;24.7;;;;;;;;;;;;;
2021/12/13 16:11:43;;;;;;;66.5;30.4;;;;;;;;;;;;;
2021/12/13 16:14:10;;;;;;;65;34.5;;;;;;;;;;;;;
2021/12/13 16:16:35;;;;;;;55.1;33.4;;;;;;;;;;;;;
2021/12/13 16:19:02;;;;;;;49.3;27.6;;;;;;;;;;;;;
2021/12/13 16:21:27;;;;;;;43.6;26.2;;;;;;;;;;;;;
2021/12/13 16:23:52;;;;;;;54.6;28;;;;;;;;;;;;;
2021/12/13 16:26:17;;;;;;;107.3;48.8;;;;;;;;;;;;;
2021/12/13 16:28:43;;;;;;;83.9;38.4;;;;;;;;;;;;;
2021/12/13 16:31:09;;;;;;;96.5;43.6;;;;;;;;;;;;;
2021/12/13 16:33:39;;;;;;;97.1;42.6;;;;;;;;;;;;;